createdAt,value
2022-10-14T00:01:38.695Z,100768.58
2022-10-14T00:04:11.616Z,100773.89
2022-10-14T00:06:44.765Z,100776.98
2022-10-14T00:09:19.363Z,100779.97
2022-10-14T00:11:52.838Z,100778.91
2022-10-14T00:14:27.000Z,100782.80
2022-10-14T00:17:00.761Z,100781.77
2022-10-14T00:19:34.093Z,100783.33
2022-10-14T00:22:06.887Z,100780.87
2022-10-14T00:24:40.559Z,100782.80
2022-10-14T00:27:13.432Z,100778.38
2022-10-14T00:29:46.471Z,100777.34
2022-10-14T00:32:19.407Z,100774.09
2022-10-14T00:34:52.504Z,100781.09
2022-10-14T00:37:25.490Z,100784.31
2022-10-14T00:39:58.701Z,100780.95
2022-10-14T00:42:39.871Z,100779.53
2022-10-14T00:45:20.835Z,100778.23
2022-10-14T00:47:55.267Z,100782.61
2022-10-14T00:50:27.351Z,100784.39
2022-10-14T00:53:00.631Z,100781.03
2022-10-14T00:55:33.897Z,100787.36
2022-10-14T00:58:10.395Z,100790.03
2022-10-14T01:00:44.620Z,100784.09
2022-10-14T01:03:24.043Z,100777.62
2022-10-14T01:06:29.903Z,100782.67
2022-10-14T01:09:13.925Z,100773.08
2022-10-14T01:12:28.607Z,100779.05
2022-10-14T01:15:25.718Z,100778.78
2022-10-14T01:18:09.710Z,100772.30
2022-10-14T01:21:08.897Z,100772.92
2022-10-14T01:24:04.145Z,100772.78
2022-10-14T01:26:56.514Z,100777.82
2022-10-14T01:30:08.979Z,100770.95
2022-10-14T01:33:11.353Z,100774.47
2022-10-14T01:36:11.633Z,100776.79
2022-10-14T01:38:59.136Z,100779.10
2022-10-14T01:41:38.299Z,100784.76
2022-10-14T01:44:14.028Z,100784.23
2022-10-14T01:46:51.183Z,100777.12
2022-10-14T01:49:37.718Z,100784.34
2022-10-14T01:52:23.175Z,100792.90
2022-10-14T01:54:58.713Z,100794.05
2022-10-14T01:57:34.492Z,100793.92
2022-10-14T02:00:11.544Z,100794.14
2022-10-14T02:02:46.211Z,100793.25
2022-10-14T02:05:32.100Z,100796.23
2022-10-14T02:08:18.361Z,100798.42
2022-10-14T02:11:15.749Z,100798.02
2022-10-14T02:14:23.074Z,100791.41
2022-10-14T02:17:20.947Z,100794.94
2022-10-14T02:19:58.495Z,100799.03
2022-10-14T02:22:42.286Z,100799.30
2022-10-14T02:25:19.570Z,100801.26
2022-10-14T02:27:53.300Z,100798.42
2022-10-14T02:30:28.887Z,100800.11
2022-10-14T02:33:02.759Z,100799.03
2022-10-14T02:35:37.400Z,100799.69
2022-10-14T02:38:10.293Z,100798.26
2022-10-14T02:40:48.905Z,100803.80
2022-10-14T02:43:21.865Z,100802.36
2022-10-14T02:45:58.176Z,100803.52
2022-10-14T02:48:31.343Z,100798.73
2022-10-14T02:51:05.043Z,100801.58
2022-10-14T02:53:37.963Z,100800.15
2022-10-14T02:56:11.972Z,100796.52
2022-10-14T02:58:44.888Z,100798.83
2022-10-14T03:01:18.635Z,100803.86
2022-10-14T03:03:52.318Z,100799.98
2022-10-14T03:06:25.961Z,100807.20
2022-10-14T03:09:00.543Z,100799.05
2022-10-14T03:11:35.405Z,100805.77
2022-10-14T03:14:10.051Z,100803.33
2022-10-14T03:16:42.884Z,100804.76
2022-10-14T03:19:17.521Z,100797.77
2022-10-14T03:21:52.115Z,100798.83
2022-10-14T03:24:27.814Z,100803.47
2022-10-14T03:27:08.881Z,100796.33
2022-10-14T03:29:41.891Z,100797.34
2022-10-14T03:32:17.346Z,100799.50
2022-10-14T03:35:10.571Z,100797.97
2022-10-14T03:37:43.482Z,100804.14
2022-10-14T03:40:17.314Z,100799.45
2022-10-14T03:42:50.601Z,100806.92
2022-10-14T03:45:25.208Z,100808.08
2022-10-14T03:47:58.734Z,100806.64
2022-10-14T03:50:31.797Z,100807.94
2022-10-14T03:53:05.444Z,100814.93
2022-10-14T03:55:40.359Z,100813.10
2022-10-14T03:58:14.265Z,100806.78
2022-10-14T04:00:49.438Z,100810.27
2022-10-14T04:03:29.892Z,100807.60
2022-10-14T04:06:04.037Z,100804.62
2022-10-14T04:08:38.381Z,100802.94
2022-10-14T04:11:17.607Z,100807.48
2022-10-14T04:13:51.509Z,100806.73
2022-10-14T04:16:24.949Z,100801.30
2022-10-14T04:19:06.084Z,100798.72
2022-10-14T04:21:39.766Z,100794.84
2022-10-14T04:24:13.791Z,100803.64
2022-10-14T04:26:49.988Z,100793.04
2022-10-14T04:29:24.538Z,100799.78
2022-10-14T04:31:59.258Z,100799.70
2022-10-14T04:34:32.308Z,100799.19
2022-10-14T04:37:05.321Z,100805.72
2022-10-14T04:39:51.754Z,100805.20
2022-10-14T04:42:25.058Z,100806.71
2022-10-14T04:44:59.749Z,100811.53
2022-10-14T04:47:35.037Z,100804.59
2022-10-14T04:50:08.992Z,100810.33
2022-10-14T04:52:42.723Z,100806.10
2022-10-14T04:55:17.375Z,100808.96
2022-10-14T04:57:50.662Z,100809.77
2022-10-14T05:00:24.194Z,100813.94
2022-10-14T05:02:58.669Z,100810.47
2022-10-14T05:05:33.245Z,100811.77
2022-10-14T05:08:08.198Z,100810.78
2022-10-14T05:10:43.088Z,100816.64
2022-10-14T05:13:19.630Z,100812.09
2022-10-14T05:15:54.439Z,100817.17
2022-10-14T05:18:27.978Z,100818.33
2022-10-14T05:21:02.948Z,100815.23
2022-10-14T05:23:50.297Z,100816.02
2022-10-14T05:26:23.519Z,100817.20
2022-10-14T05:28:57.266Z,100816.69
2022-10-14T05:31:30.275Z,100816.54
2022-10-14T05:34:05.245Z,100816.29
2022-10-14T05:36:38.258Z,100820.28
2022-10-14T05:39:11.876Z,100821.30
2022-10-14T05:41:45.539Z,100821.27
2022-10-14T05:44:18.967Z,100821.26
2022-10-14T05:46:52.930Z,100825.50
2022-10-14T05:49:26.898Z,100823.05
2022-10-14T05:52:01.437Z,100819.34
2022-10-14T05:54:36.903Z,100816.05
2022-10-14T05:57:09.950Z,100813.41
2022-10-14T05:59:42.843Z,100818.94
2022-10-14T06:02:15.804Z,100819.67
2022-10-14T06:04:48.996Z,100821.94
2022-10-14T06:07:22.504Z,100824.34
2022-10-14T06:09:55.604Z,100819.33
2022-10-14T06:12:28.684Z,100816.80
2022-10-14T06:15:01.834Z,100816.51
2022-10-14T06:17:35.676Z,100819.30
2022-10-14T06:20:10.171Z,100816.77
2022-10-14T06:22:43.567Z,100814.88
2022-10-14T06:25:16.789Z,100812.08
2022-10-14T06:27:50.749Z,100812.55
2022-10-14T06:30:23.790Z,100811.19
2022-10-14T06:32:57.197Z,100807.63
2022-10-14T06:35:30.255Z,100806.79
2022-10-14T06:38:03.967Z,100805.55
2022-10-14T06:40:38.558Z,100810.42
2022-10-14T06:43:13.132Z,100808.42
2022-10-14T06:45:47.071Z,100807.88
2022-10-14T06:48:20.801Z,100797.92
2022-10-14T06:50:54.691Z,100798.48
2022-10-14T06:53:28.331Z,100799.83
2022-10-14T06:56:04.469Z,100796.86
2022-10-14T06:58:37.470Z,100796.52
2022-10-14T07:01:10.803Z,100792.36
2022-10-14T07:03:43.737Z,100791.23
2022-10-14T07:06:17.510Z,100793.09
2022-10-14T07:08:50.596Z,100795.05
2022-10-14T07:11:24.026Z,100796.91
2022-10-14T07:13:58.328Z,100801.98
2022-10-14T07:16:31.961Z,100796.33
2022-10-14T07:19:05.231Z,100798.20
2022-10-14T07:21:38.215Z,100798.02
2022-10-14T07:24:12.048Z,100789.41
2022-10-14T07:26:45.394Z,100789.36
2022-10-14T07:29:18.712Z,100790.06
2022-10-14T07:31:51.725Z,100788.28
2022-10-14T07:34:25.428Z,100789.31
2022-10-14T07:36:58.366Z,100795.53
2022-10-14T07:39:31.548Z,100792.23
2022-10-14T07:42:04.495Z,100783.49
2022-10-14T07:44:39.007Z,100784.79
2022-10-14T07:47:11.927Z,100786.60
2022-10-14T07:49:45.723Z,100785.70
2022-10-14T07:52:20.045Z,100779.25
2022-10-14T07:54:53.988Z,100777.55
2022-10-14T07:57:27.944Z,100781.45
2022-10-14T08:00:02.302Z,100782.64
2022-10-14T08:02:36.887Z,100778.22
2022-10-14T08:07:45.148Z,100772.30
2022-10-14T08:10:18.478Z,100771.95
2022-10-14T08:12:52.168Z,100779.59
2022-10-14T08:15:26.560Z,100780.64
2022-10-14T08:17:59.560Z,100771.16
2022-10-14T08:20:33.194Z,100769.41
2022-10-14T08:23:06.014Z,100762.12
2022-10-14T08:25:39.184Z,100760.86
2022-10-14T08:28:12.163Z,100754.40
2022-10-14T08:30:45.516Z,100760.38
2022-10-14T08:33:18.886Z,100762.06
2022-10-14T08:35:54.174Z,100763.97
2022-10-14T08:38:27.287Z,100756.12
2022-10-14T08:41:17.150Z,100753.27
2022-10-14T08:44:33.830Z,100749.47
2022-10-14T08:47:08.996Z,100746.86
2022-10-14T08:50:04.339Z,100747.42
2022-10-14T08:52:53.750Z,100739.43
2022-10-14T08:55:53.267Z,100746.72
2022-10-14T08:58:52.866Z,100751.97
2022-10-14T09:01:32.997Z,100749.27
2022-10-14T09:04:09.201Z,100753.44
2022-10-14T09:06:45.869Z,100749.42
2022-10-14T09:09:41.054Z,100746.95
2022-10-14T09:12:20.923Z,100745.56
2022-10-14T09:15:21.405Z,100745.56
2022-10-14T09:17:59.073Z,100750.80
2022-10-14T09:20:33.872Z,100736.86
2022-10-14T09:23:23.286Z,100736.14
2022-10-14T09:26:03.071Z,100742.71
2022-10-14T09:28:40.520Z,100737.09
2022-10-14T09:31:14.935Z,100742.98
2022-10-14T09:33:48.670Z,100750.67
2022-10-14T09:36:23.621Z,100748.21
2022-10-14T09:38:59.961Z,100751.16
2022-10-14T09:41:34.348Z,100741.40
2022-10-14T09:44:26.250Z,100750.48
2022-10-14T09:47:02.818Z,100752.22
2022-10-14T09:49:46.476Z,100749.59
2022-10-14T09:52:25.098Z,100747.69
2022-10-14T09:55:00.324Z,100753.17
2022-10-14T09:57:33.946Z,100752.88
2022-10-14T10:00:10.227Z,100759.44
2022-10-14T10:02:47.104Z,100756.22
2022-10-14T10:05:33.509Z,100749.91
2022-10-14T10:08:12.772Z,100749.31
2022-10-14T10:11:06.673Z,100751.94
2022-10-14T10:13:46.563Z,100737.79
2022-10-14T10:16:27.015Z,100743.28
2022-10-14T10:19:00.771Z,100748.55
2022-10-14T10:21:33.821Z,100744.28
2022-10-14T10:24:09.866Z,100743.56
2022-10-14T10:26:44.039Z,100742.34
2022-10-14T10:29:28.436Z,100746.36
2022-10-14T10:32:18.286Z,100744.53
2022-10-14T10:35:24.349Z,100745.34
2022-10-14T10:38:30.021Z,100748.80
2022-10-14T10:41:15.980Z,100749.77
2022-10-14T10:44:41.859Z,100745.16
2022-10-14T10:47:28.837Z,100742.06
2022-10-14T10:50:31.635Z,100744.17
2022-10-14T10:53:23.662Z,100745.41
2022-10-14T10:56:26.843Z,100749.75
2022-10-14T10:59:47.563Z,100744.98
2022-10-14T11:02:46.276Z,100741.56
2022-10-14T11:05:34.962Z,100735.81
2022-10-14T11:08:58.248Z,100737.45
2022-10-14T11:12:03.697Z,100732.21
2022-10-14T11:14:57.146Z,100730.39
2022-10-14T11:17:43.952Z,100732.55
2022-10-14T11:20:31.245Z,100724.05
2022-10-14T11:23:36.335Z,100724.39
2022-10-14T11:26:31.777Z,100724.77
2022-10-14T11:29:40.632Z,100721.02
2022-10-14T11:32:30.793Z,100717.91
2022-10-14T11:35:41.633Z,100714.31
2022-10-14T11:38:21.915Z,100716.80
2022-10-14T11:41:50.730Z,100713.42
2022-10-14T11:44:39.303Z,100713.75
2022-10-14T11:47:25.084Z,100711.67
2022-10-14T11:50:17.748Z,100717.80
2022-10-14T11:53:25.533Z,100717.84
2022-10-14T11:56:05.830Z,100708.48
2022-10-14T11:58:40.653Z,100709.72
2022-10-14T12:01:20.691Z,100712.81
2022-10-14T12:04:09.862Z,100711.11
2022-10-14T12:06:51.935Z,100714.54
2022-10-14T12:09:47.399Z,100721.72
2022-10-14T12:12:23.824Z,100713.84
2022-10-14T12:15:13.305Z,100709.08
2022-10-14T12:18:04.238Z,100718.37
2022-10-14T12:21:04.307Z,100720.99
2022-10-14T12:23:51.331Z,100712.59
2022-10-14T12:26:37.784Z,100710.17
2022-10-14T12:29:18.274Z,100716.52
2022-10-14T12:32:07.972Z,100713.95
2022-10-14T12:34:44.257Z,100712.73
2022-10-14T12:37:41.190Z,100708.88
2022-10-14T12:40:24.694Z,100709.30
2022-10-14T12:43:07.282Z,100703.38
2022-10-14T12:45:54.383Z,100703.30
2022-10-14T12:48:35.862Z,100707.83
2022-10-14T12:51:13.556Z,100707.18
2022-10-14T12:53:54.057Z,100707.98
2022-10-14T12:56:58.168Z,100709.30
2022-10-14T12:59:39.555Z,100709.38
2022-10-14T13:02:39.582Z,100709.14
2022-10-14T13:05:42.088Z,100707.95
2022-10-14T13:08:27.945Z,100707.83
2022-10-14T13:11:14.205Z,100706.34
2022-10-14T13:13:54.762Z,100707.39
2022-10-14T13:16:32.745Z,100716.89
2022-10-14T13:19:09.494Z,100716.25
2022-10-14T13:21:47.883Z,100715.48
2022-10-14T13:24:34.259Z,100726.58
2022-10-14T13:27:30.719Z,100723.70
2022-10-14T13:30:30.320Z,100729.09
2022-10-14T13:33:14.786Z,100721.47
2022-10-14T13:36:26.808Z,100731.44
2022-10-14T13:39:01.627Z,100730.38
2022-10-14T13:41:34.894Z,100726.08
2022-10-14T13:44:08.435Z,100724.03
2022-10-14T13:46:46.824Z,100730.59
2022-10-14T13:49:35.655Z,100727.62
2022-10-14T13:52:16.729Z,100735.43
2022-10-14T13:54:49.763Z,100732.77
2022-10-14T13:58:07.372Z,100740.06
2022-10-14T14:00:39.471Z,100742.30
2022-10-14T14:02:32.305Z,100734.08
2022-10-14T14:05:05.826Z,100735.44
2022-10-14T14:10:16.476Z,100738.88
2022-10-14T14:12:52.544Z,100728.55
2022-10-14T14:15:29.142Z,100731.78
2022-10-14T14:18:03.680Z,100734.11
2022-10-14T14:20:38.717Z,100732.55
2022-10-14T14:23:14.117Z,100735.77
2022-10-14T14:26:14.405Z,100738.98
2022-10-14T14:28:26.178Z,100745.33
2022-10-14T14:30:59.114Z,100739.81
2022-10-14T14:33:35.485Z,100740.12
2022-10-14T14:36:27.354Z,100742.13
2022-10-14T14:39:01.918Z,100745.03
2022-10-14T14:41:35.972Z,100745.77
2022-10-14T14:44:26.538Z,100745.47
2022-10-14T14:46:45.742Z,100751.91
2022-10-14T14:49:22.071Z,100744.66
2022-10-14T14:51:55.157Z,100744.05
2022-10-14T14:54:29.165Z,100748.29
2022-10-14T14:57:09.165Z,100745.00
2022-10-14T14:59:45.068Z,100745.19
2022-10-14T15:02:23.946Z,100746.61
2022-10-14T15:05:12.473Z,100753.73
2022-10-14T15:07:46.152Z,100752.55
2022-10-14T15:10:28.713Z,100752.24
2022-10-14T15:13:03.433Z,100755.77
2022-10-14T15:15:38.988Z,100754.16
2022-10-14T15:18:29.069Z,100760.09
2022-10-14T15:21:19.344Z,100761.00
2022-10-14T15:23:58.662Z,100757.57
2022-10-14T15:26:35.507Z,100762.89
2022-10-14T15:32:09.316Z,100771.52
2022-10-14T15:34:44.440Z,100762.90
2022-10-14T15:37:17.292Z,100761.08
2022-10-14T15:40:06.205Z,100765.30
2022-10-14T15:42:39.295Z,100764.69
2022-10-14T15:45:12.877Z,100769.91
2022-10-14T15:47:46.416Z,100768.91
2022-10-14T15:50:23.022Z,100768.70
2022-10-14T15:52:58.958Z,100775.50
2022-10-14T15:55:35.387Z,100782.44
2022-10-14T15:58:10.669Z,100782.84
2022-10-14T16:00:45.339Z,100781.84
2022-10-14T16:03:17.867Z,100789.47
2022-10-14T16:05:50.713Z,100794.06
2022-10-14T16:08:24.936Z,100797.46
2022-10-14T16:10:59.345Z,100801.79
2022-10-14T16:13:32.356Z,100800.48
2022-10-14T16:16:07.312Z,100800.48
2022-10-14T16:18:40.248Z,100799.97
2022-10-14T16:21:17.025Z,100802.58
2022-10-14T16:23:51.691Z,100802.98
2022-10-14T16:26:26.355Z,100799.59
2022-10-14T16:29:00.656Z,100800.59
2022-10-14T16:31:34.237Z,100808.00
2022-10-14T16:34:07.107Z,100808.62
2022-10-14T16:36:42.251Z,100804.30
2022-10-14T16:39:15.913Z,100809.63
2022-10-14T16:41:50.038Z,100816.97
2022-10-14T16:44:27.778Z,100813.84
2022-10-14T16:47:03.167Z,100809.72
2022-10-14T16:49:37.078Z,100813.42
2022-10-14T16:52:11.020Z,100813.89
2022-10-14T16:54:44.435Z,100810.48
2022-10-14T16:57:17.446Z,100811.36
2022-10-14T16:59:50.124Z,100819.95
2022-10-14T17:02:25.132Z,100817.89
2022-10-14T17:05:00.069Z,100817.77
2022-10-14T17:07:34.197Z,100817.52
2022-10-14T17:10:08.647Z,100813.06
2022-10-14T17:12:42.539Z,100819.92
2022-10-14T17:15:16.144Z,100815.46
2022-10-14T17:17:49.867Z,100817.22
2022-10-14T17:20:23.153Z,100816.48
2022-10-14T17:22:56.552Z,100818.86
2022-10-14T17:25:29.768Z,100815.36
2022-10-14T17:30:35.588Z,100813.83
2022-10-14T17:33:08.553Z,100811.81
2022-10-14T17:35:41.884Z,100817.18
2022-10-14T17:38:15.116Z,100824.28
2022-10-14T17:40:48.097Z,100816.63
2022-10-14T17:43:22.729Z,100812.00
2022-10-14T17:45:57.819Z,100821.00
2022-10-14T17:48:32.139Z,100818.17
2022-10-14T17:51:04.379Z,100826.05
2022-10-14T17:53:37.372Z,100830.81
2022-10-14T17:56:13.457Z,100831.65
2022-10-14T17:58:46.958Z,100834.69
2022-10-14T18:01:31.678Z,100837.36
2022-10-14T18:03:56.845Z,100840.39
2022-10-14T18:06:37.535Z,100841.92
2022-10-14T18:09:11.660Z,100837.79
2022-10-14T18:14:22.052Z,100846.86
2022-10-14T18:16:55.649Z,100850.33
2022-10-14T18:19:28.594Z,100854.77
2022-10-14T18:22:02.967Z,100856.23
2022-10-14T18:24:38.925Z,100846.25
2022-10-14T18:27:12.099Z,100860.61
2022-10-14T18:29:44.810Z,100858.83
2022-10-14T18:32:18.248Z,100858.23
2022-10-14T18:34:52.182Z,100857.75
2022-10-14T18:37:25.046Z,100856.25
2022-10-14T18:39:58.270Z,100848.38
2022-10-14T18:42:31.263Z,100852.93
2022-10-14T18:45:04.517Z,100858.94
2022-10-14T18:47:38.040Z,100858.20
2022-10-14T18:50:10.974Z,100856.78
2022-10-14T18:52:43.717Z,100850.61
2022-10-14T18:55:16.588Z,100855.56
2022-10-14T18:57:49.308Z,100853.12
2022-10-14T19:00:22.629Z,100854.41
2022-10-14T19:02:55.470Z,100856.64
2022-10-14T19:05:32.938Z,100859.92
2022-10-14T19:08:04.159Z,100862.83
2022-10-14T19:10:36.934Z,100859.08
2022-10-14T19:13:09.745Z,100866.22
2022-10-14T19:15:51.429Z,100861.05
2022-10-14T19:18:21.760Z,100858.61
2022-10-14T19:20:56.595Z,100856.00
2022-10-14T19:23:29.503Z,100857.45
2022-10-14T19:26:09.792Z,100855.08
2022-10-14T19:28:44.285Z,100854.70
2022-10-14T19:31:21.790Z,100852.66
2022-10-14T19:33:56.151Z,100857.72
2022-10-14T19:36:30.869Z,100855.40
2022-10-14T19:39:05.536Z,100862.53
2022-10-14T19:41:40.877Z,100862.41
2022-10-14T19:44:15.168Z,100853.96
2022-10-14T19:46:49.236Z,100859.30
2022-10-14T19:49:22.201Z,100859.94
2022-10-14T19:51:55.057Z,100862.67
2022-10-14T19:54:28.189Z,100855.93
2022-10-14T19:57:01.239Z,100856.08
2022-10-14T19:59:34.303Z,100861.77
2022-10-14T20:02:08.141Z,100861.15
2022-10-14T20:04:41.217Z,100860.48
2022-10-14T20:07:15.198Z,100860.91
2022-10-14T20:09:48.151Z,100860.24
2022-10-14T20:12:23.315Z,100867.36
2022-10-14T20:14:57.913Z,100869.45
2022-10-14T20:17:31.474Z,100868.67
2022-10-14T20:20:05.032Z,100866.47
2022-10-14T20:22:38.463Z,100872.56
2022-10-14T20:25:12.168Z,100865.55
2022-10-14T20:27:47.346Z,100867.64
2022-10-14T20:30:20.908Z,100862.95
2022-10-14T20:32:55.484Z,100865.41
2022-10-14T20:38:01.345Z,100865.16
2022-10-14T20:40:36.476Z,100868.02
2022-10-14T20:43:09.367Z,100862.70
2022-10-14T20:45:42.556Z,100869.58
2022-10-14T20:48:15.388Z,100865.69
2022-10-14T20:50:48.636Z,100866.22
2022-10-14T20:53:21.897Z,100865.56
2022-10-14T20:55:55.279Z,100868.29
2022-10-14T20:58:28.336Z,100868.39
2022-10-14T21:01:16.698Z,100867.89
2022-10-14T21:03:49.835Z,100863.87
2022-10-14T21:06:25.243Z,100865.80
2022-10-14T21:08:59.398Z,100870.72
2022-10-14T21:11:32.277Z,100866.97
2022-10-14T21:14:05.775Z,100864.11
2022-10-14T21:16:40.472Z,100864.61
2022-10-14T21:19:13.278Z,100864.21
2022-10-14T21:21:47.182Z,100876.01
2022-10-14T21:24:21.038Z,100873.69
2022-10-14T21:26:55.016Z,100873.02
2022-10-14T21:29:29.026Z,100877.30
2022-10-14T21:32:02.984Z,100871.22
2022-10-14T21:34:36.101Z,100868.50
2022-10-14T21:37:09.072Z,100868.50
2022-10-14T21:39:42.173Z,100871.45
2022-10-14T21:42:15.280Z,100870.02
2022-10-14T21:44:48.234Z,100871.98
2022-10-14T21:47:21.732Z,100873.14
2022-10-14T21:49:55.872Z,100873.91
2022-10-14T21:52:29.192Z,100881.41
2022-10-14T21:55:02.240Z,100873.90
2022-10-14T21:57:35.297Z,100882.30
2022-10-14T22:00:10.358Z,100882.42
2022-10-14T22:02:43.716Z,100889.80
2022-10-14T22:05:16.634Z,100880.86
2022-10-14T22:07:49.864Z,100887.95
2022-10-14T22:10:42.373Z,100885.37
2022-10-14T22:13:15.138Z,100891.08
2022-10-14T22:15:49.151Z,100892.38
2022-10-14T22:18:23.198Z,100887.06
2022-10-14T22:21:06.954Z,100886.52
2022-10-14T22:23:40.679Z,100889.65
2022-10-14T22:26:16.467Z,100886.78
2022-10-14T22:28:49.771Z,100891.43
2022-10-14T22:31:24.003Z,100891.03
2022-10-14T22:33:57.231Z,100897.55
2022-10-14T22:36:32.473Z,100890.15
2022-10-14T22:39:09.296Z,100888.58
2022-10-14T22:41:42.270Z,100887.28
2022-10-14T22:44:15.074Z,100881.83
2022-10-14T22:46:47.818Z,100883.39
2022-10-14T22:49:20.513Z,100887.66
2022-10-14T22:51:56.622Z,100884.00
2022-10-14T22:54:28.096Z,100884.27
2022-10-14T22:57:00.926Z,100894.62
2022-10-14T22:59:33.703Z,100895.66
2022-10-14T23:02:06.622Z,100893.19
2022-10-14T23:04:39.506Z,100892.91
2022-10-14T23:07:13.161Z,100898.71
2022-10-14T23:09:45.872Z,100894.31
2022-10-14T23:12:19.630Z,100900.51
2022-10-14T23:14:52.381Z,100901.13
2022-10-14T23:17:25.287Z,100907.46
2022-10-14T23:19:58.662Z,100901.11
2022-10-14T23:22:35.228Z,100901.73
2022-10-14T23:25:08.665Z,100901.05
2022-10-14T23:27:41.514Z,100905.95
2022-10-14T23:30:14.657Z,100904.77
2022-10-14T23:32:48.187Z,100901.55
2022-10-14T23:35:21.107Z,100894.55
2022-10-14T23:37:54.338Z,100892.34
2022-10-14T23:40:27.286Z,100892.71
2022-10-14T23:43:00.333Z,100892.97
2022-10-14T23:45:33.454Z,100904.47
2022-10-14T23:48:06.903Z,100897.47
2022-10-14T23:50:39.755Z,100900.98
2022-10-14T23:53:14.100Z,100908.09
2022-10-14T23:55:45.989Z,100900.73
2022-10-14T23:58:18.558Z,100899.18
